sensor_id;sensor_type;location;lat;lon;timestamp;P1;durP1;ratioP1;P2;durP2;ratioP2
72864;SDS011;61000;48.120;11.548;2023-03-01T00:02:21;21.85;;;13.90;;
72864;SDS011;61000;48.120;11.548;2023-03-01T00:04:49;23.05;;;15.57;;
72864;SDS011;61000;48.120;11.548;2023-03-01T00:07:16;27.73;;;16.83;;
72864;SDS011;61000;48.120;11.548;2023-03-01T00:09:43;26.70;;;16.17;;
72864;SDS011;61000;48.120;11.548;2023-03-01T00:12:11;25.63;;;16.45;;
72864;SDS011;61000;48.120;11.548;2023-03-01T00:14:38;25.17;;;15.18;;
72864;SDS011;61000;48.120;11.548;2023-03-01T00:17:05;26.65;;;15.68;;
72864;SDS011;61000;48.120;11.548;2023-03-01T00:19:32;27.38;;;15.70;;
72864;SDS011;61000;48.120;11.548;2023-03-01T00:22:00;24.30;;;14.48;;
72864;SDS011;61000;48.120;11.548;2023-03-01T00:24:27;22.77;;;14.95;;
72864;SDS011;61000;48.120;11.548;2023-03-01T00:26:54;24.33;;;14.50;;
72864;SDS011;61000;48.120;11.548;2023-03-01T00:29:21;27.05;;;15.48;;
72864;SDS011;61000;48.120;11.548;2023-03-01T00:31:48;25.02;;;15.07;;
72864;SDS011;61000;48.120;11.548;2023-03-01T00:34:15;25.23;;;16.08;;
72864;SDS011;61000;48.120;11.548;2023-03-01T00:36:42;22.25;;;14.88;;
72864;SDS011;61000;48.120;11.548;2023-03-01T00:39:12;24.27;;;15.35;;
72864;SDS011;61000;48.120;11.548;2023-03-01T00:41:40;24.88;;;14.90;;
72864;SDS011;61000;48.120;11.548;2023-03-01T00:44:07;23.73;;;15.30;;
72864;SDS011;61000;48.120;11.548;2023-03-01T00:46:34;24.60;;;15.23;;
72864;SDS011;61000;48.120;11.548;2023-03-01T00:49:01;26.85;;;16.10;;
72864;SDS011;61000;48.120;11.548;2023-03-01T00:51:29;22.95;;;15.60;;
72864;SDS011;61000;48.120;11.548;2023-03-01T00:53:58;28.15;;;16.27;;
72864;SDS011;61000;48.120;11.548;2023-03-01T00:56:27;28.85;;;16.88;;
72864;SDS011;61000;48.120;11.548;2023-03-01T00:58:54;23.17;;;15.32;;
72864;SDS011;61000;48.120;11.548;2023-03-01T01:01:22;29.63;;;17.10;;
72864;SDS011;61000;48.120;11.548;2023-03-01T01:03:53;27.90;;;17.00;;
72864;SDS011;61000;48.120;11.548;2023-03-01T01:06:22;27.15;;;15.45;;
72864;SDS011;61000;48.120;11.548;2023-03-01T01:08:50;25.85;;;15.93;;
72864;SDS011;61000;48.120;11.548;2023-03-01T01:11:19;24.20;;;15.70;;
72864;SDS011;61000;48.120;11.548;2023-03-01T01:13:49;26.95;;;15.65;;
72864;SDS011;61000;48.120;11.548;2023-03-01T01:16:16;26.25;;;15.32;;
72864;SDS011;61000;48.120;11.548;2023-03-01T01:18:45;25.85;;;16.20;;
72864;SDS011;61000;48.120;11.548;2023-03-01T01:21:12;25.33;;;14.85;;
72864;SDS011;61000;48.120;11.548;2023-03-01T01:23:41;26.00;;;16.20;;
72864;SDS011;61000;48.120;11.548;2023-03-01T01:26:10;27.95;;;15.82;;
72864;SDS011;61000;48.120;11.548;2023-03-01T01:28:38;25.88;;;15.07;;
72864;SDS011;61000;48.120;11.548;2023-03-01T01:31:06;23.75;;;14.80;;
72864;SDS011;61000;48.120;11.548;2023-03-01T01:33:33;23.95;;;14.68;;
72864;SDS011;61000;48.120;11.548;2023-03-01T01:36:00;25.30;;;15.38;;
72864;SDS011;61000;48.120;11.548;2023-03-01T01:38:28;27.88;;;15.30;;
72864;SDS011;61000;48.120;11.548;2023-03-01T01:40:54;26.27;;;15.10;;
72864;SDS011;61000;48.120;11.548;2023-03-01T01:43:22;29.10;;;16.27;;
72864;SDS011;61000;48.120;11.548;2023-03-01T01:45:50;27.45;;;17.40;;
72864;SDS011;61000;48.120;11.548;2023-03-01T01:48:21;27.35;;;15.73;;
72864;SDS011;61000;48.120;11.548;2023-03-01T01:50:52;27.52;;;16.05;;
72864;SDS011;61000;48.120;11.548;2023-03-01T01:53:22;24.65;;;14.80;;
72864;SDS011;61000;48.120;11.548;2023-03-01T01:55:52;24.88;;;15.48;;
72864;SDS011;61000;48.120;11.548;2023-03-01T01:58:22;28.52;;;16.00;;
72864;SDS011;61000;48.120;11.548;2023-03-01T02:00:51;27.05;;;15.98;;
72864;SDS011;61000;48.120;11.548;2023-03-01T02:03:22;25.02;;;14.80;;
72864;SDS011;61000;48.120;11.548;2023-03-01T02:05:55;26.85;;;15.65;;
72864;SDS011;61000;48.120;11.548;2023-03-01T02:08:28;27.58;;;14.95;;
72864;SDS011;61000;48.120;11.548;2023-03-01T02:10:57;26.50;;;15.88;;
72864;SDS011;61000;48.120;11.548;2023-03-01T02:13:25;27.80;;;16.55;;
72864;SDS011;61000;48.120;11.548;2023-03-01T02:15:53;25.30;;;14.38;;
72864;SDS011;61000;48.120;11.548;2023-03-01T02:18:22;25.23;;;15.38;;
72864;SDS011;61000;48.120;11.548;2023-03-01T02:20:54;30.23;;;16.15;;
72864;SDS011;61000;48.120;11.548;2023-03-01T02:23:37;22.00;;;14.38;;
72864;SDS011;61000;48.120;11.548;2023-03-01T02:26:07;27.67;;;16.45;;
72864;SDS011;61000;48.120;11.548;2023-03-01T02:28:40;26.67;;;15.63;;
72864;SDS011;61000;48.120;11.548;2023-03-01T02:31:09;26.55;;;16.27;;
72864;SDS011;61000;48.120;11.548;2023-03-01T02:33:57;23.95;;;15.13;;
72864;SDS011;61000;48.120;11.548;2023-03-01T02:36:29;27.67;;;15.95;;
72864;SDS011;61000;48.120;11.548;2023-03-01T02:39:00;26.63;;;16.38;;
72864;SDS011;61000;48.120;11.548;2023-03-01T02:41:30;23.25;;;16.00;;
72864;SDS011;61000;48.120;11.548;2023-03-01T02:44:03;26.58;;;16.30;;
72864;SDS011;61000;48.120;11.548;2023-03-01T02:46:31;25.77;;;15.98;;
72864;SDS011;61000;48.120;11.548;2023-03-01T02:48:58;24.88;;;16.02;;
72864;SDS011;61000;48.120;11.548;2023-03-01T02:51:34;27.83;;;16.77;;
72864;SDS011;61000;48.120;11.548;2023-03-01T02:54:14;25.10;;;16.08;;
72864;SDS011;61000;48.120;11.548;2023-03-01T02:56:47;28.75;;;15.85;;
72864;SDS011;61000;48.120;11.548;2023-03-01T02:59:18;27.13;;;15.88;;
72864;SDS011;61000;48.120;11.548;2023-03-01T03:01:47;28.67;;;15.45;;
72864;SDS011;61000;48.120;11.548;2023-03-01T03:04:17;25.55;;;16.02;;
72864;SDS011;61000;48.120;11.548;2023-03-01T03:06:48;27.67;;;16.08;;
72864;SDS011;61000;48.120;11.548;2023-03-01T03:09:16;24.77;;;15.57;;
72864;SDS011;61000;48.120;11.548;2023-03-01T03:11:44;25.27;;;15.90;;
72864;SDS011;61000;48.120;11.548;2023-03-01T03:14:13;27.50;;;16.30;;
72864;SDS011;61000;48.120;11.548;2023-03-01T03:16:46;26.40;;;15.38;;
72864;SDS011;61000;48.120;11.548;2023-03-01T03:19:14;27.40;;;15.95;;
72864;SDS011;61000;48.120;11.548;2023-03-01T03:21:41;23.95;;;15.82;;
72864;SDS011;61000;48.120;11.548;2023-03-01T03:24:08;26.80;;;16.13;;
72864;SDS011;61000;48.120;11.548;2023-03-01T03:26:35;25.88;;;16.17;;
72864;SDS011;61000;48.120;11.548;2023-03-01T03:29:02;24.42;;;15.40;;
72864;SDS011;61000;48.120;11.548;2023-03-01T03:31:29;29.05;;;16.98;;
72864;SDS011;61000;48.120;11.548;2023-03-01T03:33:57;26.85;;;15.10;;
72864;SDS011;61000;48.120;11.548;2023-03-01T03:36:25;31.65;;;17.02;;
72864;SDS011;61000;48.120;11.548;2023-03-01T03:38:52;25.38;;;16.70;;
72864;SDS011;61000;48.120;11.548;2023-03-01T03:41:19;29.58;;;16.55;;
72864;SDS011;61000;48.120;11.548;2023-03-01T03:43:46;22.83;;;15.07;;
72864;SDS011;61000;48.120;11.548;2023-03-01T03:46:13;25.80;;;16.55;;
72864;SDS011;61000;48.120;11.548;2023-03-01T03:48:43;29.17;;;16.08;;
72864;SDS011;61000;48.120;11.548;2023-03-01T03:51:12;24.67;;;15.77;;
72864;SDS011;61000;48.120;11.548;2023-03-01T03:53:41;27.73;;;16.23;;
72864;SDS011;61000;48.120;11.548;2023-03-01T03:56:08;24.38;;;15.68;;
72864;SDS011;61000;48.120;11.548;2023-03-01T03:58:36;25.92;;;16.65;;
72864;SDS011;61000;48.120;11.548;2023-03-01T04:01:03;30.92;;;17.98;;
72864;SDS011;61000;48.120;11.548;2023-03-01T04:03:31;31.25;;;17.58;;
72864;SDS011;61000;48.120;11.548;2023-03-01T04:06:00;30.50;;;16.35;;
72864;SDS011;61000;48.120;11.548;2023-03-01T04:08:28;26.88;;;15.85;;
72864;SDS011;61000;48.120;11.548;2023-03-01T04:10:59;28.05;;;17.02;;
72864;SDS011;61000;48.120;11.548;2023-03-01T04:13:48;29.05;;;17.60;;
72864;SDS011;61000;48.120;11.548;2023-03-01T04:16:15;28.45;;;16.40;;
72864;SDS011;61000;48.120;11.548;2023-03-01T04:18:42;29.48;;;16.70;;
72864;SDS011;61000;48.120;11.548;2023-03-01T04:21:09;29.05;;;17.58;;
72864;SDS011;61000;48.120;11.548;2023-03-01T04:23:38;27.17;;;16.27;;
72864;SDS011;61000;48.120;11.548;2023-03-01T04:26:06;27.95;;;16.17;;
72864;SDS011;61000;48.120;11.548;2023-03-01T04:28:34;27.13;;;16.42;;
72864;SDS011;61000;48.120;11.548;2023-03-01T04:31:02;30.65;;;17.15;;
72864;SDS011;61000;48.120;11.548;2023-03-01T04:33:38;29.33;;;17.35;;
72864;SDS011;61000;48.120;11.548;2023-03-01T04:36:06;25.50;;;16.15;;
72864;SDS011;61000;48.120;11.548;2023-03-01T04:38:34;27.83;;;16.77;;
72864;SDS011;61000;48.120;11.548;2023-03-01T04:41:04;28.05;;;17.35;;
72864;SDS011;61000;48.120;11.548;2023-03-01T04:43:32;24.75;;;15.68;;
72864;SDS011;61000;48.120;11.548;2023-03-01T04:46:00;28.50;;;16.77;;
72864;SDS011;61000;48.120;11.548;2023-03-01T04:48:28;32.80;;;16.65;;
72864;SDS011;61000;48.120;11.548;2023-03-01T04:50:55;33.92;;;17.83;;
72864;SDS011;61000;48.120;11.548;2023-03-01T04:53:22;32.67;;;17.10;;
72864;SDS011;61000;48.120;11.548;2023-03-01T04:55:49;31.02;;;17.83;;
72864;SDS011;61000;48.120;11.548;2023-03-01T04:58:18;29.05;;;17.35;;
72864;SDS011;61000;48.120;11.548;2023-03-01T05:00:45;26.88;;;16.98;;
72864;SDS011;61000;48.120;11.548;2023-03-01T05:03:11;32.80;;;17.08;;
72864;SDS011;61000;48.120;11.548;2023-03-01T05:05:43;26.45;;;17.15;;
72864;SDS011;61000;48.120;11.548;2023-03-01T05:08:11;32.33;;;17.60;;
72864;SDS011;61000;48.120;11.548;2023-03-01T05:10:42;28.58;;;17.30;;
72864;SDS011;61000;48.120;11.548;2023-03-01T05:13:12;26.17;;;16.75;;
72864;SDS011;61000;48.120;11.548;2023-03-01T05:15:41;28.73;;;16.77;;
72864;SDS011;61000;48.120;11.548;2023-03-01T05:18:08;27.52;;;16.42;;
72864;SDS011;61000;48.120;11.548;2023-03-01T05:20:36;26.20;;;16.45;;
72864;SDS011;61000;48.120;11.548;2023-03-01T05:23:04;25.38;;;16.50;;
72864;SDS011;61000;48.120;11.548;2023-03-01T05:25:31;25.60;;;15.85;;
72864;SDS011;61000;48.120;11.548;2023-03-01T05:27:58;26.60;;;16.45;;
72864;SDS011;61000;48.120;11.548;2023-03-01T05:30:29;27.17;;;16.40;;
72864;SDS011;61000;48.120;11.548;2023-03-01T05:32:58;30.77;;;17.85;;
72864;SDS011;61000;48.120;11.548;2023-03-01T05:35:25;28.80;;;17.55;;
72864;SDS011;61000;48.120;11.548;2023-03-01T05:37:52;24.95;;;15.02;;
72864;SDS011;61000;48.120;11.548;2023-03-01T05:40:20;30.88;;;17.95;;
72864;SDS011;61000;48.120;11.548;2023-03-01T05:42:50;28.38;;;15.70;;
72864;SDS011;61000;48.120;11.548;2023-03-01T05:45:19;31.17;;;16.38;;
72864;SDS011;61000;48.120;11.548;2023-03-01T05:47:47;31.33;;;16.17;;
72864;SDS011;61000;48.120;11.548;2023-03-01T05:50:17;30.23;;;16.05;;
72864;SDS011;61000;48.120;11.548;2023-03-01T05:52:47;31.98;;;16.58;;
72864;SDS011;61000;48.120;11.548;2023-03-01T05:55:14;27.60;;;16.67;;
72864;SDS011;61000;48.120;11.548;2023-03-01T05:57:42;28.73;;;16.88;;
72864;SDS011;61000;48.120;11.548;2023-03-01T06:00:10;33.92;;;17.85;;
72864;SDS011;61000;48.120;11.548;2023-03-01T06:02:38;32.63;;;16.92;;
72864;SDS011;61000;48.120;11.548;2023-03-01T06:05:05;27.58;;;16.23;;
72864;SDS011;61000;48.120;11.548;2023-03-01T06:07:35;29.90;;;16.45;;
72864;SDS011;61000;48.120;11.548;2023-03-01T06:10:02;30.15;;;17.33;;
72864;SDS011;61000;48.120;11.548;2023-03-01T06:12:30;29.38;;;16.92;;
72864;SDS011;61000;48.120;11.548;2023-03-01T06:14:58;30.55;;;16.33;;
72864;SDS011;61000;48.120;11.548;2023-03-01T06:17:25;33.45;;;17.02;;
72864;SDS011;61000;48.120;11.548;2023-03-01T06:19:54;31.92;;;16.25;;
72864;SDS011;61000;48.120;11.548;2023-03-01T06:22:21;30.65;;;17.88;;
72864;SDS011;61000;48.120;11.548;2023-03-01T06:24:49;31.98;;;17.05;;
72864;SDS011;61000;48.120;11.548;2023-03-01T06:27:16;34.80;;;17.25;;
72864;SDS011;61000;48.120;11.548;2023-03-01T06:29:43;33.80;;;17.00;;
72864;SDS011;61000;48.120;11.548;2023-03-01T06:32:10;32.78;;;17.88;;
72864;SDS011;61000;48.120;11.548;2023-03-01T06:34:37;27.77;;;16.63;;
72864;SDS011;61000;48.120;11.548;2023-03-01T06:37:03;29.00;;;17.23;;
72864;SDS011;61000;48.120;11.548;2023-03-01T06:39:30;29.83;;;16.65;;
72864;SDS011;61000;48.120;11.548;2023-03-01T06:41:59;28.17;;;16.55;;
72864;SDS011;61000;48.120;11.548;2023-03-01T06:44:26;29.48;;;17.10;;
72864;SDS011;61000;48.120;11.548;2023-03-01T06:46:53;29.67;;;16.67;;
72864;SDS011;61000;48.120;11.548;2023-03-01T06:49:20;34.63;;;17.55;;
72864;SDS011;61000;48.120;11.548;2023-03-01T06:51:47;32.33;;;17.92;;
72864;SDS011;61000;48.120;11.548;2023-03-01T06:54:14;28.58;;;17.70;;
72864;SDS011;61000;48.120;11.548;2023-03-01T06:56:42;32.85;;;17.13;;
72864;SDS011;61000;48.120;11.548;2023-03-01T06:59:13;32.58;;;17.08;;
72864;SDS011;61000;48.120;11.548;2023-03-01T07:01:40;30.65;;;17.05;;
72864;SDS011;61000;48.120;11.548;2023-03-01T07:04:07;32.22;;;16.52;;
72864;SDS011;61000;48.120;11.548;2023-03-01T07:06:34;34.10;;;17.75;;
72864;SDS011;61000;48.120;11.548;2023-03-01T07:09:01;25.48;;;15.80;;
72864;SDS011;61000;48.120;11.548;2023-03-01T07:11:28;33.90;;;17.02;;
72864;SDS011;61000;48.120;11.548;2023-03-01T07:13:54;33.08;;;17.00;;
72864;SDS011;61000;48.120;11.548;2023-03-01T07:16:23;31.38;;;17.23;;
72864;SDS011;61000;48.120;11.548;2023-03-01T07:18:49;29.42;;;16.05;;
72864;SDS011;61000;48.120;11.548;2023-03-01T07:21:16;29.30;;;16.83;;
72864;SDS011;61000;48.120;11.548;2023-03-01T07:23:43;30.65;;;17.58;;
72864;SDS011;61000;48.120;11.548;2023-03-01T07:26:13;28.10;;;16.67;;
72864;SDS011;61000;48.120;11.548;2023-03-01T07:28:39;30.52;;;17.00;;
72864;SDS011;61000;48.120;11.548;2023-03-01T07:31:06;29.42;;;16.27;;
72864;SDS011;61000;48.120;11.548;2023-03-01T07:33:34;33.70;;;16.88;;
72864;SDS011;61000;48.120;11.548;2023-03-01T07:36:02;30.80;;;16.80;;
72864;SDS011;61000;48.120;11.548;2023-03-01T07:38:30;31.13;;;17.17;;
72864;SDS011;61000;48.120;11.548;2023-03-01T07:40:57;31.23;;;17.05;;
72864;SDS011;61000;48.120;11.548;2023-03-01T07:43:25;33.55;;;16.23;;
72864;SDS011;61000;48.120;11.548;2023-03-01T07:45:52;31.40;;;17.65;;
72864;SDS011;61000;48.120;11.548;2023-03-01T07:48:19;27.58;;;17.17;;
72864;SDS011;61000;48.120;11.548;2023-03-01T07:50:47;32.45;;;17.40;;
72864;SDS011;61000;48.120;11.548;2023-03-01T07:53:14;32.15;;;17.17;;
72864;SDS011;61000;48.120;11.548;2023-03-01T07:55:41;28.40;;;16.90;;
72864;SDS011;61000;48.120;11.548;2023-03-01T07:58:07;36.92;;;17.98;;
72864;SDS011;61000;48.120;11.548;2023-03-01T08:00:34;28.38;;;15.82;;
72864;SDS011;61000;48.120;11.548;2023-03-01T08:03:01;32.00;;;16.33;;
72864;SDS011;61000;48.120;11.548;2023-03-01T08:05:28;30.45;;;16.67;;
72864;SDS011;61000;48.120;11.548;2023-03-01T08:07:57;34.88;;;17.75;;
72864;SDS011;61000;48.120;11.548;2023-03-01T08:10:23;33.05;;;16.85;;
72864;SDS011;61000;48.120;11.548;2023-03-01T08:12:51;34.50;;;17.67;;
72864;SDS011;61000;48.120;11.548;2023-03-01T08:15:18;33.28;;;17.80;;
72864;SDS011;61000;48.120;11.548;2023-03-01T08:17:45;35.25;;;18.77;;
72864;SDS011;61000;48.120;11.548;2023-03-01T08:20:15;30.52;;;16.85;;
72864;SDS011;61000;48.120;11.548;2023-03-01T08:22:42;30.75;;;17.23;;
72864;SDS011;61000;48.120;11.548;2023-03-01T08:25:10;30.98;;;17.30;;
72864;SDS011;61000;48.120;11.548;2023-03-01T08:27:37;31.63;;;18.15;;
72864;SDS011;61000;48.120;11.548;2023-03-01T08:30:04;33.92;;;18.05;;
72864;SDS011;61000;48.120;11.548;2023-03-01T08:32:34;31.35;;;17.77;;
72864;SDS011;61000;48.120;11.548;2023-03-01T08:35:02;33.85;;;17.83;;
72864;SDS011;61000;48.120;11.548;2023-03-01T08:37:29;33.67;;;18.85;;
72864;SDS011;61000;48.120;11.548;2023-03-01T08:39:58;28.33;;;17.27;;
72864;SDS011;61000;48.120;11.548;2023-03-01T08:42:26;32.60;;;18.10;;
72864;SDS011;61000;48.120;11.548;2023-03-01T08:44:53;32.08;;;18.35;;
72864;SDS011;61000;48.120;11.548;2023-03-01T08:47:20;32.33;;;18.45;;
72864;SDS011;61000;48.120;11.548;2023-03-01T08:49:48;31.75;;;17.77;;
72864;SDS011;61000;48.120;11.548;2023-03-01T08:52:16;34.47;;;17.73;;
72864;SDS011;61000;48.120;11.548;2023-03-01T08:54:43;31.58;;;17.85;;
72864;SDS011;61000;48.120;11.548;2023-03-01T08:57:10;36.58;;;18.05;;
72864;SDS011;61000;48.120;11.548;2023-03-01T08:59:39;31.10;;;18.27;;
72864;SDS011;61000;48.120;11.548;2023-03-01T09:02:10;34.63;;;17.80;;
72864;SDS011;61000;48.120;11.548;2023-03-01T09:04:39;33.28;;;17.40;;
72864;SDS011;61000;48.120;11.548;2023-03-01T09:07:06;27.20;;;16.17;;
72864;SDS011;61000;48.120;11.548;2023-03-01T09:09:33;29.02;;;16.75;;
72864;SDS011;61000;48.120;11.548;2023-03-01T09:12:01;30.70;;;17.77;;
72864;SDS011;61000;48.120;11.548;2023-03-01T09:14:28;31.63;;;17.85;;
72864;SDS011;61000;48.120;11.548;2023-03-01T09:16:56;32.10;;;17.02;;
72864;SDS011;61000;48.120;11.548;2023-03-01T09:19:23;32.65;;;18.02;;
72864;SDS011;61000;48.120;11.548;2023-03-01T09:21:50;33.80;;;17.70;;
72864;SDS011;61000;48.120;11.548;2023-03-01T09:24:18;36.72;;;19.42;;
72864;SDS011;61000;48.120;11.548;2023-03-01T09:26:46;33.58;;;17.98;;
72864;SDS011;61000;48.120;11.548;2023-03-01T09:29:13;30.13;;;17.50;;
72864;SDS011;61000;48.120;11.548;2023-03-01T09:31:41;27.73;;;16.60;;
72864;SDS011;61000;48.120;11.548;2023-03-01T09:34:10;31.55;;;17.00;;
72864;SDS011;61000;48.120;11.548;2023-03-01T09:36:38;35.67;;;17.33;;
72864;SDS011;61000;48.120;11.548;2023-03-01T09:39:05;37.40;;;19.02;;
72864;SDS011;61000;48.120;11.548;2023-03-01T09:41:36;34.53;;;18.58;;
72864;SDS011;61000;48.120;11.548;2023-03-01T09:44:10;30.17;;;17.58;;
72864;SDS011;61000;48.120;11.548;2023-03-01T09:46:47;30.80;;;18.20;;
72864;SDS011;61000;48.120;11.548;2023-03-01T09:49:17;29.90;;;17.48;;
72864;SDS011;61000;48.120;11.548;2023-03-01T09:51:48;32.90;;;18.75;;
72864;SDS011;61000;48.120;11.548;2023-03-01T09:54:21;34.42;;;17.40;;
72864;SDS011;61000;48.120;11.548;2023-03-01T09:56:53;32.97;;;18.98;;
72864;SDS011;61000;48.120;11.548;2023-03-01T09:59:26;35.63;;;18.27;;
72864;SDS011;61000;48.120;11.548;2023-03-01T10:01:59;33.13;;;18.33;;
72864;SDS011;61000;48.120;11.548;2023-03-01T10:04:35;30.77;;;16.98;;
72864;SDS011;61000;48.120;11.548;2023-03-01T10:07:18;27.67;;;16.20;;
72864;SDS011;61000;48.120;11.548;2023-03-01T10:09:52;35.58;;;18.30;;
72864;SDS011;61000;48.120;11.548;2023-03-01T10:12:20;34.47;;;18.15;;
72864;SDS011;61000;48.120;11.548;2023-03-01T10:14:53;29.05;;;16.67;;
72864;SDS011;61000;48.120;11.548;2023-03-01T10:17:26;29.75;;;17.77;;
72864;SDS011;61000;48.120;11.548;2023-03-01T10:20:01;30.95;;;17.33;;
72864;SDS011;61000;48.120;11.548;2023-03-01T10:22:41;31.38;;;17.63;;
72864;SDS011;61000;48.120;11.548;2023-03-01T10:25:12;33.00;;;17.25;;
72864;SDS011;61000;48.120;11.548;2023-03-01T10:27:42;30.35;;;17.05;;
72864;SDS011;61000;48.120;11.548;2023-03-01T10:30:19;29.75;;;17.35;;
72864;SDS011;61000;48.120;11.548;2023-03-01T10:32:47;30.80;;;17.63;;
72864;SDS011;61000;48.120;11.548;2023-03-01T10:35:19;28.00;;;15.57;;
72864;SDS011;61000;48.120;11.548;2023-03-01T10:37:58;28.02;;;17.48;;
72864;SDS011;61000;48.120;11.548;2023-03-01T10:40:29;31.30;;;18.08;;
72864;SDS011;61000;48.120;11.548;2023-03-01T10:42:57;29.20;;;17.27;;
72864;SDS011;61000;48.120;11.548;2023-03-01T10:45:31;34.60;;;18.45;;
72864;SDS011;61000;48.120;11.548;2023-03-01T10:48:03;29.80;;;17.30;;
72864;SDS011;61000;48.120;11.548;2023-03-01T10:50:40;36.00;;;18.65;;
72864;SDS011;61000;48.120;11.548;2023-03-01T10:53:19;32.88;;;19.13;;
72864;SDS011;61000;48.120;11.548;2023-03-01T10:55:56;36.35;;;20.00;;
72864;SDS011;61000;48.120;11.548;2023-03-01T10:58:29;34.70;;;18.38;;
72864;SDS011;61000;48.120;11.548;2023-03-01T11:00:57;28.27;;;17.50;;
72864;SDS011;61000;48.120;11.548;2023-03-01T11:03:26;29.83;;;18.27;;
72864;SDS011;61000;48.120;11.548;2023-03-01T11:05:59;36.05;;;18.75;;
72864;SDS011;61000;48.120;11.548;2023-03-01T11:08:29;33.97;;;18.20;;
72864;SDS011;61000;48.120;11.548;2023-03-01T11:11:03;32.20;;;18.05;;
72864;SDS011;61000;48.120;11.548;2023-03-01T11:13:32;30.55;;;17.13;;
72864;SDS011;61000;48.120;11.548;2023-03-01T11:16:00;32.58;;;17.45;;
72864;SDS011;61000;48.120;11.548;2023-03-01T11:18:29;27.27;;;16.73;;
72864;SDS011;61000;48.120;11.548;2023-03-01T11:20:56;26.75;;;17.20;;
72864;SDS011;61000;48.120;11.548;2023-03-01T11:23:27;31.10;;;17.67;;
72864;SDS011;61000;48.120;11.548;2023-03-01T11:25:57;29.40;;;17.27;;
72864;SDS011;61000;48.120;11.548;2023-03-01T11:28:29;32.85;;;20.65;;
72864;SDS011;61000;48.120;11.548;2023-03-01T11:30:57;35.95;;;19.23;;
72864;SDS011;61000;48.120;11.548;2023-03-01T11:33:33;38.95;;;19.48;;
72864;SDS011;61000;48.120;11.548;2023-03-01T11:36:08;32.75;;;17.52;;
72864;SDS011;61000;48.120;11.548;2023-03-01T11:38:42;33.20;;;18.52;;
72864;SDS011;61000;48.120;11.548;2023-03-01T11:41:12;32.22;;;18.73;;
72864;SDS011;61000;48.120;11.548;2023-03-01T11:43:44;27.63;;;18.13;;
72864;SDS011;61000;48.120;11.548;2023-03-01T11:46:24;29.67;;;18.15;;
72864;SDS011;61000;48.120;11.548;2023-03-01T11:52:22;30.75;;;18.05;;
72864;SDS011;61000;48.120;11.548;2023-03-01T11:54:58;32.20;;;18.95;;
72864;SDS011;61000;48.120;11.548;2023-03-01T11:57:40;33.03;;;19.33;;
72864;SDS011;61000;48.120;11.548;2023-03-01T12:03:16;32.83;;;19.48;;
72864;SDS011;61000;48.120;11.548;2023-03-01T12:08:51;32.17;;;19.02;;
72864;SDS011;61000;48.120;11.548;2023-03-01T12:11:29;38.92;;;21.13;;
72864;SDS011;61000;48.120;11.548;2023-03-01T12:14:12;35.05;;;19.27;;
72864;SDS011;61000;48.120;11.548;2023-03-01T12:16:55;34.38;;;18.48;;
72864;SDS011;61000;48.120;11.548;2023-03-01T12:19:44;28.67;;;18.17;;
72864;SDS011;61000;48.120;11.548;2023-03-01T12:22:29;32.10;;;18.23;;
72864;SDS011;61000;48.120;11.548;2023-03-01T12:25:05;27.77;;;18.42;;
72864;SDS011;61000;48.120;11.548;2023-03-01T12:27:46;29.95;;;18.27;;
72864;SDS011;61000;48.120;11.548;2023-03-01T12:30:39;32.58;;;18.92;;
72864;SDS011;61000;48.120;11.548;2023-03-01T12:33:19;31.50;;;18.40;;
72864;SDS011;61000;48.120;11.548;2023-03-01T12:35:54;31.90;;;18.17;;
72864;SDS011;61000;48.120;11.548;2023-03-01T12:38:57;30.00;;;17.70;;
72864;SDS011;61000;48.120;11.548;2023-03-01T12:41:35;27.23;;;16.83;;
72864;SDS011;61000;48.120;11.548;2023-03-01T12:44:22;29.67;;;17.83;;
72864;SDS011;61000;48.120;11.548;2023-03-01T12:47:04;27.30;;;17.45;;
72864;SDS011;61000;48.120;11.548;2023-03-01T12:49:41;27.27;;;17.75;;
72864;SDS011;61000;48.120;11.548;2023-03-01T12:52:12;32.38;;;18.65;;
72864;SDS011;61000;48.120;11.548;2023-03-01T12:54:43;30.85;;;19.17;;
72864;SDS011;61000;48.120;11.548;2023-03-01T12:57:14;31.35;;;19.00;;
72864;SDS011;61000;48.120;11.548;2023-03-01T12:59:48;34.58;;;19.50;;
72864;SDS011;61000;48.120;11.548;2023-03-01T13:02:26;29.23;;;18.20;;
72864;SDS011;61000;48.120;11.548;2023-03-01T13:05:06;28.58;;;18.55;;
72864;SDS011;61000;48.120;11.548;2023-03-01T13:07:49;30.60;;;17.88;;
72864;SDS011;61000;48.120;11.548;2023-03-01T13:10:24;29.88;;;18.35;;
72864;SDS011;61000;48.120;11.548;2023-03-01T13:13:02;30.83;;;17.10;;
72864;SDS011;61000;48.120;11.548;2023-03-01T13:15:39;27.27;;;18.02;;
72864;SDS011;61000;48.120;11.548;2023-03-01T13:20:55;28.88;;;17.83;;
72864;SDS011;61000;48.120;11.548;2023-03-01T13:23:24;29.90;;;18.77;;
72864;SDS011;61000;48.120;11.548;2023-03-01T13:26:00;29.98;;;17.88;;
72864;SDS011;61000;48.120;11.548;2023-03-01T13:28:40;30.10;;;18.83;;
72864;SDS011;61000;48.120;11.548;2023-03-01T13:37:10;28.42;;;18.25;;
72864;SDS011;61000;48.120;11.548;2023-03-01T13:39:44;28.88;;;18.25;;
72864;SDS011;61000;48.120;11.548;2023-03-01T13:45:01;29.65;;;18.60;;
72864;SDS011;61000;48.120;11.548;2023-03-01T13:47:28;30.30;;;18.77;;
72864;SDS011;61000;48.120;11.548;2023-03-01T13:49:56;27.27;;;17.48;;
72864;SDS011;61000;48.120;11.548;2023-03-01T13:52:32;31.45;;;19.42;;
72864;SDS011;61000;48.120;11.548;2023-03-01T13:55:05;31.25;;;19.45;;
72864;SDS011;61000;48.120;11.548;2023-03-01T13:57:44;27.48;;;18.10;;
72864;SDS011;61000;48.120;11.548;2023-03-01T14:00:30;33.38;;;19.00;;
72864;SDS011;61000;48.120;11.548;2023-03-01T14:02:59;31.27;;;19.25;;
72864;SDS011;61000;48.120;11.548;2023-03-01T14:05:29;29.60;;;18.25;;
72864;SDS011;61000;48.120;11.548;2023-03-01T14:07:55;29.08;;;17.70;;
72864;SDS011;61000;48.120;11.548;2023-03-01T14:10:22;31.83;;;19.00;;
72864;SDS011;61000;48.120;11.548;2023-03-01T14:12:54;28.70;;;18.42;;
72864;SDS011;61000;48.120;11.548;2023-03-01T14:15:31;32.35;;;17.98;;
72864;SDS011;61000;48.120;11.548;2023-03-01T14:18:02;30.73;;;18.08;;
72864;SDS011;61000;48.120;11.548;2023-03-01T14:20:37;35.28;;;18.42;;
72864;SDS011;61000;48.120;11.548;2023-03-01T14:23:09;38.90;;;18.13;;
72864;SDS011;61000;48.120;11.548;2023-03-01T14:25:38;35.53;;;19.50;;
72864;SDS011;61000;48.120;11.548;2023-03-01T14:28:13;34.63;;;19.10;;
72864;SDS011;61000;48.120;11.548;2023-03-01T14:30:45;31.95;;;18.67;;
72864;SDS011;61000;48.120;11.548;2023-03-01T14:33:20;31.95;;;18.50;;
72864;SDS011;61000;48.120;11.548;2023-03-01T14:35:52;29.75;;;17.88;;
72864;SDS011;61000;48.120;11.548;2023-03-01T14:38:21;30.60;;;18.00;;
72864;SDS011;61000;48.120;11.548;2023-03-01T14:40:50;37.35;;;18.23;;
72864;SDS011;61000;48.120;11.548;2023-03-01T14:43:21;29.35;;;17.45;;
72864;SDS011;61000;48.120;11.548;2023-03-01T14:45:52;33.08;;;17.88;;
72864;SDS011;61000;48.120;11.548;2023-03-01T14:48:19;32.53;;;18.13;;